createdAt,value
2019-05-20T00:00:00.823Z,94111.58
2019-05-20T00:02:33.977Z,94125.59
2019-05-20T00:05:05.294Z,94124.47
2019-05-20T00:07:37.979Z,94126.09
2019-05-20T00:10:10.781Z,94127.48
2019-05-20T00:12:43.813Z,94132.24
2019-05-20T00:15:17.109Z,94133.44
2019-05-20T00:17:50.630Z,94134.86
2019-05-20T00:20:23.357Z,94136.38
2019-05-20T00:22:55.954Z,94135.73
2019-05-20T00:25:28.808Z,94139.30
2019-05-20T00:28:01.304Z,94140.14
2019-05-20T00:30:33.953Z,94140.57
2019-05-20T00:33:06.663Z,94145.16
2019-05-20T00:35:39.213Z,94142.23
2019-05-20T00:38:11.726Z,94145.84
2019-05-20T00:40:44.683Z,94149.02
2019-05-20T00:43:17.151Z,94149.47
2019-05-20T00:45:50.541Z,94147.37
2019-05-20T00:48:23.050Z,94155.49
2019-05-20T00:50:55.986Z,94158.70
2019-05-20T00:53:28.577Z,94158.92
2019-05-20T00:56:01.597Z,94163.41
2019-05-20T00:58:34.292Z,94162.87
2019-05-20T01:01:07.132Z,94162.62
2019-05-20T01:03:39.768Z,94167.48
2019-05-20T01:06:12.369Z,94179.69
2019-05-20T01:08:45.265Z,94174.25
2019-05-20T01:11:19.039Z,94179.56
2019-05-20T01:13:51.628Z,94180.64
2019-05-20T01:16:24.484Z,94180.64
2019-05-20T01:18:57.073Z,94185.89
2019-05-20T01:21:29.596Z,94191.52
2019-05-20T01:24:03.164Z,94190.81
2019-05-20T01:26:35.541Z,94202.19
2019-05-20T01:29:08.388Z,94200.39
2019-05-20T01:31:40.518Z,94201.73
2019-05-20T01:34:12.698Z,94201.02
2019-05-20T01:36:45.979Z,94193.38
2019-05-20T01:39:18.523Z,94200.14
2019-05-20T01:41:51.045Z,94204.58
2019-05-20T01:44:23.891Z,94194.38
2019-05-20T01:46:56.533Z,94195.00
2019-05-20T01:49:29.489Z,94198.19
2019-05-20T01:52:02.173Z,94200.48
2019-05-20T01:54:34.591Z,94201.27
2019-05-20T01:57:07.504Z,94198.37
2019-05-20T01:59:40.112Z,94204.05
2019-05-20T02:02:13.672Z,94206.72
2019-05-20T02:04:46.095Z,94201.66
2019-05-20T02:07:18.996Z,94201.69
2019-05-20T02:09:52.764Z,94207.13
2019-05-20T02:12:25.276Z,94212.36
2019-05-20T02:15:03.935Z,94218.58
2019-05-20T02:17:36.953Z,94208.56
2019-05-20T02:20:09.587Z,94213.53
2019-05-20T02:22:42.610Z,94213.12
2019-05-20T02:25:16.139Z,94217.47
2019-05-20T02:27:48.766Z,94216.33
2019-05-20T02:30:21.053Z,94212.41
2019-05-20T02:32:54.096Z,94213.77
2019-05-20T02:35:26.596Z,94212.71
2019-05-20T02:37:59.015Z,94217.83
2019-05-20T02:40:31.856Z,94207.00
2019-05-20T02:43:04.588Z,94204.11
2019-05-20T02:45:38.008Z,94205.20
2019-05-20T02:48:10.410Z,94198.89
2019-05-20T02:50:43.257Z,94194.45
2019-05-20T02:53:15.743Z,94199.83
2019-05-20T02:55:48.844Z,94199.56
2019-05-20T02:58:21.555Z,94198.22
2019-05-20T03:00:54.074Z,94198.42
2019-05-20T03:03:26.412Z,94202.14
2019-05-20T03:05:59.273Z,94207.82
2019-05-20T03:08:31.648Z,94209.22
2019-05-20T03:11:04.104Z,94211.66
2019-05-20T03:13:36.945Z,94213.78
2019-05-20T03:16:09.659Z,94216.24
2019-05-20T03:18:41.964Z,94210.14
2019-05-20T03:21:14.696Z,94212.01
2019-05-20T03:23:47.380Z,94207.00
2019-05-20T03:26:19.858Z,94205.66
2019-05-20T03:28:53.144Z,94202.69
2019-05-20T03:31:24.218Z,94205.59
2019-05-20T03:33:57.110Z,94206.40
2019-05-20T03:36:29.582Z,94211.21
2019-05-20T03:39:02.523Z,94215.47
2019-05-20T03:41:35.339Z,94220.27
2019-05-20T03:44:08.415Z,94224.03
2019-05-20T03:46:42.357Z,94229.09
2019-05-20T03:49:15.008Z,94235.75
2019-05-20T03:51:47.910Z,94242.92
2019-05-20T03:54:20.399Z,94246.13
2019-05-20T03:56:53.541Z,94245.84
2019-05-20T03:59:24.824Z,94250.85
2019-05-20T04:01:57.710Z,94244.95
2019-05-20T04:04:30.110Z,94245.73
2019-05-20T04:07:02.665Z,94248.61
2019-05-20T04:09:35.604Z,94240.05
2019-05-20T04:12:08.277Z,94232.79
2019-05-20T04:14:40.835Z,94238.79
2019-05-20T04:17:13.778Z,94238.75
2019-05-20T04:19:46.508Z,94249.27
2019-05-20T04:22:19.024Z,94246.02
2019-05-20T04:24:52.222Z,94245.04
2019-05-20T04:27:24.844Z,94249.91
2019-05-20T04:29:57.976Z,94258.34
2019-05-20T04:32:29.039Z,94258.60
2019-05-20T04:35:20.420Z,94257.01
2019-05-20T04:37:39.949Z,94257.09
2019-05-20T04:40:13.371Z,94250.32
2019-05-20T04:42:45.994Z,94255.22
2019-05-20T04:45:18.646Z,94256.64
2019-05-20T04:47:51.329Z,94249.05
2019-05-20T04:50:24.891Z,94251.42
2019-05-20T04:52:57.319Z,94251.80
2019-05-20T04:55:29.765Z,94250.21
2019-05-20T04:58:02.694Z,94246.00
2019-05-20T05:00:56.213Z,94248.10
2019-05-20T05:03:28.814Z,94251.59
2019-05-20T05:06:01.336Z,94250.28
2019-05-20T05:08:34.165Z,94256.09
2019-05-20T05:11:06.860Z,94249.00
2019-05-20T05:13:39.377Z,94256.73
2019-05-20T05:16:12.106Z,94256.95
2019-05-20T05:18:44.843Z,94252.64
2019-05-20T05:21:18.634Z,94258.80
2019-05-20T05:23:59.356Z,94261.20
2019-05-20T05:26:25.817Z,94266.81
2019-05-20T05:28:58.686Z,94263.35
2019-05-20T05:31:31.393Z,94266.84
2019-05-20T05:34:03.836Z,94258.30
2019-05-20T05:36:36.699Z,94248.09
2019-05-20T05:39:09.322Z,94263.27
2019-05-20T05:41:42.162Z,94266.66
2019-05-20T05:44:14.283Z,94258.52
2019-05-20T05:46:47.023Z,94256.86
2019-05-20T05:49:19.448Z,94257.88
2019-05-20T05:51:52.092Z,94265.62
2019-05-20T05:54:24.881Z,94254.37
2019-05-20T05:56:57.322Z,94249.73
2019-05-20T05:59:30.320Z,94254.29
2019-05-20T06:02:02.834Z,94255.20
2019-05-20T06:04:35.388Z,94256.09
2019-05-20T06:07:08.356Z,94257.33
2019-05-20T06:09:41.046Z,94250.66
2019-05-20T06:12:13.311Z,94254.88
2019-05-20T06:14:46.192Z,94248.69
2019-05-20T06:17:18.960Z,94252.33
2019-05-20T06:19:51.483Z,94246.91
2019-05-20T06:22:24.454Z,94252.48
2019-05-20T06:24:57.111Z,94255.08
2019-05-20T06:27:30.241Z,94252.70
2019-05-20T06:30:01.451Z,94255.52
2019-05-20T06:32:34.611Z,94248.47
2019-05-20T06:35:06.373Z,94241.81
2019-05-20T06:37:42.092Z,94240.25
2019-05-20T06:40:15.530Z,94235.38
2019-05-20T06:42:48.147Z,94239.14
2019-05-20T06:45:20.935Z,94240.30
2019-05-20T06:47:53.430Z,94242.41
2019-05-20T06:50:29.487Z,94236.88
2019-05-20T06:53:00.800Z,94234.54
2019-05-20T06:55:33.328Z,94240.91
2019-05-20T06:58:06.009Z,94239.64
2019-05-20T07:00:39.848Z,94240.97
2019-05-20T07:03:12.230Z,94241.73
2019-05-20T07:05:44.985Z,94241.71
2019-05-20T07:08:17.809Z,94243.48
2019-05-20T07:10:50.550Z,94240.38
2019-05-20T07:13:23.156Z,94236.88
2019-05-20T07:15:55.828Z,94234.63
2019-05-20T07:18:28.696Z,94233.39
2019-05-20T07:21:02.138Z,94237.73
2019-05-20T07:23:35.677Z,94238.33
2019-05-20T07:26:08.461Z,94229.49
2019-05-20T07:28:40.723Z,94231.99
2019-05-20T07:31:13.605Z,94238.09
2019-05-20T07:33:46.098Z,94237.42
2019-05-20T07:36:18.451Z,94245.19
2019-05-20T07:38:51.280Z,94243.77
2019-05-20T07:41:23.990Z,94246.53
2019-05-20T07:43:56.420Z,94249.94
2019-05-20T07:46:29.518Z,94241.00
2019-05-20T07:49:02.755Z,94244.66
2019-05-20T07:51:35.836Z,94250.02
2019-05-20T07:54:09.140Z,94249.31
2019-05-20T07:56:44.520Z,94247.61
2019-05-20T07:59:18.823Z,94244.17
2019-05-20T08:01:52.045Z,94244.77
2019-05-20T08:04:24.978Z,94241.70
2019-05-20T08:06:57.669Z,94245.80
2019-05-20T08:09:30.739Z,94236.35
2019-05-20T08:12:01.934Z,94246.95
2019-05-20T08:14:35.006Z,94248.23
2019-05-20T08:17:07.696Z,94239.11
2019-05-20T08:19:40.639Z,94245.07
2019-05-20T08:22:11.619Z,94242.17
2019-05-20T08:24:43.887Z,94248.06
2019-05-20T08:27:16.431Z,94239.46
2019-05-20T08:29:49.391Z,94251.66
2019-05-20T08:32:22.014Z,94244.44
2019-05-20T08:34:55.067Z,94242.91
2019-05-20T08:37:26.268Z,94248.08
2019-05-20T08:39:59.810Z,94247.89
2019-05-20T08:42:32.221Z,94244.63
2019-05-20T08:45:05.500Z,94253.30
2019-05-20T08:47:37.994Z,94255.05
2019-05-20T08:50:15.954Z,94253.14
2019-05-20T08:52:45.268Z,94254.52
2019-05-20T08:55:18.234Z,94248.35
2019-05-20T08:57:49.382Z,94248.23
2019-05-20T09:00:24.558Z,94251.14
2019-05-20T09:02:57.789Z,94250.11
2019-05-20T09:05:30.511Z,94253.55
2019-05-20T09:08:04.108Z,94252.95
2019-05-20T09:10:39.457Z,94260.66
2019-05-20T09:13:12.339Z,94259.68
2019-05-20T09:15:45.561Z,94263.95
2019-05-20T09:18:18.455Z,94261.83
2019-05-20T09:20:50.967Z,94256.30
2019-05-20T09:23:23.648Z,94256.13
2019-05-20T09:25:56.511Z,94253.08
2019-05-20T09:28:29.133Z,94250.60
2019-05-20T09:31:02.387Z,94248.46
2019-05-20T09:33:35.740Z,94244.95
2019-05-20T09:36:08.605Z,94245.97
2019-05-20T09:38:41.470Z,94237.64
2019-05-20T09:41:12.811Z,94244.00
2019-05-20T09:43:44.987Z,94232.71
2019-05-20T09:46:18.008Z,94229.84
2019-05-20T09:48:50.501Z,94239.80
2019-05-20T09:51:23.020Z,94239.07
2019-05-20T09:53:55.908Z,94239.77
2019-05-20T09:56:27.837Z,94238.81
2019-05-20T09:59:00.478Z,94240.86
2019-05-20T10:01:33.471Z,94246.53
2019-05-20T10:04:04.845Z,94254.24
2019-05-20T10:06:37.587Z,94250.56
2019-05-20T10:09:10.267Z,94258.95
2019-05-20T10:11:43.287Z,94261.16
2019-05-20T10:14:14.595Z,94257.19
2019-05-20T10:16:48.313Z,94264.95
2019-05-20T10:19:21.272Z,94281.85
2019-05-20T10:22:04.634Z,94275.72
2019-05-20T10:24:37.611Z,94281.86
2019-05-20T10:27:08.921Z,94275.43
2019-05-20T10:29:41.289Z,94273.83
2019-05-20T10:32:14.204Z,94278.31
2019-05-20T10:34:46.787Z,94275.86
2019-05-20T10:37:19.448Z,94284.95
2019-05-20T10:39:52.445Z,94299.57
2019-05-20T10:42:24.975Z,94300.33
2019-05-20T10:44:57.910Z,94310.47
2019-05-20T10:47:30.728Z,94331.06
2019-05-20T10:50:03.578Z,94343.91
2019-05-20T10:52:36.540Z,94340.09
2019-05-20T10:55:09.579Z,94319.20
2019-05-20T10:57:42.429Z,94315.48
2019-05-20T11:00:16.808Z,94315.65
2019-05-20T11:02:49.208Z,94315.09
2019-05-20T11:05:21.733Z,94305.77
2019-05-20T11:07:54.712Z,94310.05
2019-05-20T11:10:26.125Z,94311.34
2019-05-20T11:12:59.083Z,94308.51
2019-05-20T11:15:31.954Z,94301.64
2019-05-20T11:18:04.474Z,94301.95
2019-05-20T11:20:37.285Z,94299.64
2019-05-20T11:23:09.850Z,94305.84
2019-05-20T11:25:42.299Z,94305.82
2019-05-20T11:28:15.114Z,94306.34
2019-05-20T11:30:47.752Z,94306.03
2019-05-20T11:33:20.272Z,94297.95
2019-05-20T11:35:52.663Z,94301.13
2019-05-20T11:38:25.501Z,94291.92
2019-05-20T11:40:58.061Z,94292.13
2019-05-20T11:43:30.562Z,94292.31
2019-05-20T11:46:03.581Z,94294.09
2019-05-20T11:48:34.612Z,94293.73
2019-05-20T11:51:06.895Z,94293.06
2019-05-20T11:53:39.254Z,94287.64
2019-05-20T11:56:12.256Z,94280.77
2019-05-20T11:58:45.326Z,94277.84
2019-05-20T12:01:17.969Z,94279.34
2019-05-20T12:03:50.484Z,94279.13
2019-05-20T12:06:23.398Z,94280.17
2019-05-20T12:08:55.958Z,94284.36
2019-05-20T12:11:28.907Z,94295.02
2019-05-20T12:14:00.281Z,94287.33
2019-05-20T12:16:33.155Z,94298.71
2019-05-20T12:19:05.639Z,94304.16
2019-05-20T12:21:38.091Z,94302.67
2019-05-20T12:24:11.083Z,94305.44
2019-05-20T12:26:43.724Z,94309.45
2019-05-20T12:29:16.161Z,94307.72
2019-05-20T12:31:48.932Z,94309.36
2019-05-20T12:34:21.641Z,94318.28
2019-05-20T12:36:54.675Z,94318.88
2019-05-20T12:39:27.450Z,94338.81
2019-05-20T12:42:00.064Z,94369.56
2019-05-20T12:44:32.518Z,94391.37
2019-05-20T12:47:05.458Z,94404.19
2019-05-20T12:49:38.054Z,94415.77
2019-05-20T12:52:11.034Z,94418.66
2019-05-20T12:54:42.219Z,94413.30
2019-05-20T12:57:15.802Z,94410.30
2019-05-20T12:59:48.401Z,94411.34
2019-05-20T13:02:24.364Z,94420.53
2019-05-20T13:04:56.761Z,94424.96
2019-05-20T13:07:29.859Z,94426.77
2019-05-20T13:10:03.139Z,94428.46
2019-05-20T13:12:36.396Z,94426.39
2019-05-20T13:15:11.778Z,94421.51
2019-05-20T13:17:45.531Z,94419.58
2019-05-20T13:20:18.549Z,94415.86
2019-05-20T13:22:51.148Z,94420.78
2019-05-20T13:25:24.422Z,94419.84
2019-05-20T13:27:55.564Z,94404.42
2019-05-20T13:30:29.211Z,94398.27
2019-05-20T13:33:01.813Z,94399.09
2019-05-20T13:35:34.653Z,94390.35
2019-05-20T13:38:07.394Z,94400.02
2019-05-20T13:40:46.288Z,94396.12
2019-05-20T13:43:14.070Z,94397.91
2019-05-20T13:45:48.224Z,94399.41
2019-05-20T13:48:20.450Z,94407.05
2019-05-20T13:50:56.363Z,94402.03
2019-05-20T13:53:29.211Z,94410.11
2019-05-20T13:56:02.243Z,94409.98
2019-05-20T13:58:38.156Z,94422.41
2019-05-20T14:01:10.559Z,94430.70
2019-05-20T14:03:43.455Z,94425.47
2019-05-20T14:06:16.121Z,94418.91
2019-05-20T14:08:48.487Z,94417.71
2019-05-20T14:11:33.778Z,94409.23
2019-05-20T14:13:55.468Z,94409.98
2019-05-20T14:16:27.849Z,94420.77
2019-05-20T14:19:00.843Z,94431.36
2019-05-20T14:21:33.330Z,94430.02
2019-05-20T14:24:06.335Z,94434.61
2019-05-20T14:26:38.854Z,94432.35
2019-05-20T14:29:11.441Z,94451.70
2019-05-20T14:31:44.267Z,94447.87
2019-05-20T14:34:16.864Z,94436.34
2019-05-20T14:36:52.625Z,94442.88
2019-05-20T14:39:23.337Z,94451.48
2019-05-20T14:41:55.242Z,94450.80
2019-05-20T14:44:27.827Z,94441.13
2019-05-20T14:47:00.714Z,94453.64
2019-05-20T14:49:33.498Z,94459.77
2019-05-20T14:52:06.010Z,94460.27
2019-05-20T14:54:38.843Z,94448.92
2019-05-20T14:57:11.468Z,94440.97
2019-05-20T14:59:44.258Z,94441.27
2019-05-20T15:02:16.968Z,94449.23
2019-05-20T15:04:49.537Z,94443.79
2019-05-20T15:07:30.197Z,94433.39
2019-05-20T15:09:56.630Z,94429.83
2019-05-20T15:12:29.351Z,94423.58
2019-05-20T15:15:02.171Z,94425.13
2019-05-20T15:17:34.134Z,94436.35
2019-05-20T15:20:07.006Z,94432.72
2019-05-20T15:22:39.834Z,94430.66
2019-05-20T15:25:12.544Z,94424.52
2019-05-20T15:27:45.476Z,94429.86
2019-05-20T15:30:17.991Z,94429.28
2019-05-20T15:32:50.606Z,94428.92
2019-05-20T15:35:23.776Z,94430.20
2019-05-20T15:37:56.650Z,94426.70
2019-05-20T15:40:29.188Z,94421.02
2019-05-20T15:43:02.255Z,94418.45
2019-05-20T15:45:33.347Z,94431.13
2019-05-20T15:48:05.674Z,94429.41
2019-05-20T15:50:38.440Z,94430.17
2019-05-20T15:53:12.460Z,94424.98
2019-05-20T15:55:45.662Z,94421.56
2019-05-20T15:58:18.330Z,94416.95
2019-05-20T16:00:50.635Z,94419.72
2019-05-20T16:03:23.542Z,94417.05
2019-05-20T16:05:59.783Z,94426.00
2019-05-20T16:08:31.217Z,94426.25
2019-05-20T16:11:06.621Z,94426.34
2019-05-20T16:13:38.459Z,94430.30
2019-05-20T16:16:13.147Z,94418.34
2019-05-20T16:18:46.083Z,94421.92
2019-05-20T16:21:17.281Z,94425.13
2019-05-20T16:23:49.792Z,94419.30
2019-05-20T16:26:22.639Z,94417.55
2019-05-20T16:28:54.806Z,94421.09
2019-05-20T16:31:27.291Z,94414.30
2019-05-20T16:33:59.994Z,94411.68
2019-05-20T16:36:32.908Z,94405.56
2019-05-20T16:39:06.240Z,94408.11
2019-05-20T16:41:39.064Z,94409.27
2019-05-20T16:44:12.110Z,94404.52
2019-05-20T16:46:44.724Z,94412.08
2019-05-20T16:49:18.653Z,94409.59
2019-05-20T16:51:51.605Z,94419.38
2019-05-20T16:54:24.355Z,94423.16
2019-05-20T16:56:57.167Z,94424.83
2019-05-20T16:59:29.903Z,94415.88
2019-05-20T17:02:02.510Z,94413.24
2019-05-20T17:04:35.600Z,94418.38
2019-05-20T17:07:08.178Z,94412.23
2019-05-20T17:09:40.656Z,94413.10
2019-05-20T17:12:12.984Z,94407.24
2019-05-20T17:14:45.833Z,94411.02
2019-05-20T17:17:18.396Z,94414.16
2019-05-20T17:19:51.308Z,94419.45
2019-05-20T17:22:25.089Z,94420.32
2019-05-20T17:24:57.895Z,94413.65
2019-05-20T17:27:30.864Z,94413.30
2019-05-20T17:30:04.544Z,94412.82
2019-05-20T17:32:39.178Z,94416.56
2019-05-20T17:35:12.846Z,94422.46
2019-05-20T17:37:45.814Z,94423.59
2019-05-20T17:40:18.902Z,94429.70
2019-05-20T17:42:51.682Z,94434.26
2019-05-20T17:45:24.394Z,94438.33
2019-05-20T17:47:57.681Z,94435.08
2019-05-20T17:50:28.850Z,94444.12
2019-05-20T17:53:02.139Z,94438.25
2019-05-20T17:55:34.951Z,94447.59
2019-05-20T17:58:07.807Z,94448.73
2019-05-20T18:00:40.434Z,94453.88
2019-05-20T18:03:12.980Z,94449.34
2019-05-20T18:05:45.836Z,94458.94
2019-05-20T18:08:18.308Z,94457.33
2019-05-20T18:10:53.723Z,94452.55
2019-05-20T18:13:26.889Z,94457.13
2019-05-20T18:15:59.360Z,94457.99
2019-05-20T18:18:31.845Z,94455.34
2019-05-20T18:21:04.781Z,94460.44
2019-05-20T18:23:37.179Z,94460.44
2019-05-20T18:26:09.755Z,94461.55
2019-05-20T18:28:42.083Z,94463.65
2019-05-20T18:31:29.660Z,94467.16
2019-05-20T18:33:48.920Z,94469.02
2019-05-20T18:36:21.454Z,94476.52
2019-05-20T18:38:54.174Z,94478.13
2019-05-20T18:41:26.934Z,94485.34
2019-05-20T18:43:59.908Z,94492.00
2019-05-20T18:46:32.455Z,94491.22
2019-05-20T18:49:05.068Z,94498.19
2019-05-20T18:51:37.715Z,94506.16
2019-05-20T18:54:10.614Z,94508.84
2019-05-20T18:56:43.417Z,94511.48
2019-05-20T18:59:16.618Z,94504.84
2019-05-20T19:02:03.864Z,94504.83
2019-05-20T19:04:23.996Z,94502.70
2019-05-20T19:06:55.969Z,94500.05
2019-05-20T19:09:28.657Z,94502.95
2019-05-20T19:12:01.936Z,94502.70
2019-05-20T19:14:33.077Z,94508.30
2019-05-20T19:17:06.049Z,94514.67
2019-05-20T19:19:38.688Z,94516.55
2019-05-20T19:22:11.737Z,94515.98
2019-05-20T19:24:44.416Z,94514.92
2019-05-20T19:27:17.199Z,94509.34
2019-05-20T19:29:51.187Z,94512.27
2019-05-20T19:32:24.991Z,94509.08
2019-05-20T19:34:58.834Z,94515.73
2019-05-20T19:37:31.784Z,94521.59
2019-05-20T19:40:38.137Z,94521.34
2019-05-20T19:43:10.728Z,94525.59
2019-05-20T19:45:43.958Z,94518.39
2019-05-20T19:48:16.889Z,94518.39
2019-05-20T19:50:50.499Z,94527.98
2019-05-20T19:53:23.905Z,94517.86
2019-05-20T19:55:55.937Z,94532.25
2019-05-20T19:58:28.376Z,94534.11
2019-05-20T20:01:02.360Z,94537.53
2019-05-20T20:03:35.205Z,94542.55
2019-05-20T20:06:07.920Z,94542.23
2019-05-20T20:08:40.425Z,94536.89
2019-05-20T20:11:13.171Z,94528.95
2019-05-20T20:13:45.988Z,94523.59
2019-05-20T20:16:18.459Z,94522.48
2019-05-20T20:18:51.340Z,94530.68
2019-05-20T20:21:23.862Z,94529.06
2019-05-20T20:23:56.532Z,94530.07
2019-05-20T20:26:29.497Z,94527.66
2019-05-20T20:29:02.053Z,94528.17
2019-05-20T20:31:34.722Z,94536.39
2019-05-20T20:34:07.384Z,94535.11
2019-05-20T20:36:39.773Z,94541.52
2019-05-20T20:39:12.968Z,94530.15
2019-05-20T20:41:44.309Z,94532.02
2019-05-20T20:44:17.120Z,94535.25
2019-05-20T20:46:49.848Z,94550.14
2019-05-20T20:49:22.828Z,94548.28
2019-05-20T20:51:55.011Z,94553.05
2019-05-20T20:54:27.504Z,94552.37
2019-05-20T20:57:00.042Z,94556.58
2019-05-20T20:59:32.817Z,94554.46
2019-05-20T21:02:05.662Z,94554.43
2019-05-20T21:04:38.650Z,94559.41
2019-05-20T21:07:11.321Z,94561.49
2019-05-20T21:09:44.393Z,94563.48
2019-05-20T21:12:17.106Z,94560.69
2019-05-20T21:14:50.033Z,94561.88
2019-05-20T21:17:22.740Z,94563.52
2019-05-20T21:19:55.072Z,94553.45
2019-05-20T21:22:27.851Z,94556.12
2019-05-20T21:25:00.450Z,94546.64
2019-05-20T21:27:33.089Z,94552.82
2019-05-20T21:30:06.162Z,94556.02
2019-05-20T21:32:37.533Z,94562.23
2019-05-20T21:35:10.217Z,94563.79
2019-05-20T21:37:42.682Z,94564.64
2019-05-20T21:40:15.208Z,94568.17
2019-05-20T21:42:48.021Z,94564.64
2019-05-20T21:45:20.708Z,94562.31
2019-05-20T21:47:53.732Z,94561.94
2019-05-20T21:50:26.286Z,94568.30
2019-05-20T21:52:58.952Z,94568.59
2019-05-20T21:55:31.730Z,94567.34
2019-05-20T21:58:04.490Z,94564.14
2019-05-20T22:00:56.368Z,94566.67
2019-05-20T22:03:29.066Z,94567.22
2019-05-20T22:06:02.016Z,94568.13
2019-05-20T22:08:34.559Z,94568.32
2019-05-20T22:11:07.108Z,94571.63
2019-05-20T22:13:39.975Z,94575.92
2019-05-20T22:16:12.555Z,94579.24
2019-05-20T22:18:44.817Z,94583.19
2019-05-20T22:21:19.345Z,94587.23
2019-05-20T22:23:58.133Z,94587.18
2019-05-20T22:26:30.482Z,94590.45
2019-05-20T22:29:03.559Z,94590.66
2019-05-20T22:31:36.015Z,94587.39
2019-05-20T22:34:09.051Z,94585.45
2019-05-20T22:36:41.683Z,94581.69
2019-05-20T22:39:14.385Z,94580.33
2019-05-20T22:41:47.224Z,94580.23
2019-05-20T22:44:19.747Z,94576.50
2019-05-20T22:46:52.822Z,94580.61
2019-05-20T22:49:26.333Z,94584.92
2019-05-20T22:51:59.095Z,94569.78
2019-05-20T22:54:31.611Z,94573.05
2019-05-20T22:57:04.609Z,94578.02
2019-05-20T22:59:37.441Z,94585.91
2019-05-20T23:02:10.458Z,94574.92
2019-05-20T23:04:43.093Z,94577.00
2019-05-20T23:07:15.044Z,94578.66
2019-05-20T23:09:47.279Z,94585.64
2019-05-20T23:12:19.773Z,94580.69
2019-05-20T23:14:52.425Z,94583.40
2019-05-20T23:17:26.115Z,94578.52
2019-05-20T23:19:58.826Z,94581.45
2019-05-20T23:22:32.484Z,94583.58
2019-05-20T23:25:05.007Z,94588.05
2019-05-20T23:27:38.299Z,94583.96
2019-05-20T23:30:11.021Z,94582.11
2019-05-20T23:32:43.782Z,94575.83
2019-05-20T23:35:16.366Z,94577.77
2019-05-20T23:37:49.067Z,94570.58
2019-05-20T23:40:21.373Z,94568.92
2019-05-20T23:42:54.378Z,94578.70
2019-05-20T23:45:27.059Z,94580.36
2019-05-20T23:47:59.980Z,94579.75
2019-05-20T23:50:32.593Z,94576.94
2019-05-20T23:53:05.630Z,94577.73
2019-05-20T23:55:38.145Z,94571.20
2019-05-20T23:58:10.943Z,94568.27
